Terminal Aerodrome Forecast
Issued by NWS Austin/San Antonio, TX

Home | Current Version | Previous Version | Text Only | Print | Product List | Glossary On
Versions: 1 2 3 4 5 6 7 8 9 10 11 12 13 14 15 16 17 18 19 20 21 22 23 24 25 26 27 28
000
FTUS44 KEWX 200800 AAA
TAFAUS
TAF AMD
KAUS 200810Z 2008/2112 00000KT P6SM FEW150 BKN250
     FM200900 16004KT 5SM BR BKN070
     FM201100 15005KT 4SM BR OVC008
     FM201500 16010KT 5SM BR OVC015
     FM201700 15010KT P6SM BKN025
     FM202100 16012KT P6SM SCT030 BKN050
     FM210400 17010KT P6SM BKN015=

USA.gov is the U.S. government's official web portal to all federal, state and local government web resources and services.